sensor_id;sensor_type;location;lat;lon;timestamp;P1;durP1;ratioP1;P2;durP2;ratioP2
25015;SDS011;13029;46.286;7.488;2023-07-20T00:01:10;6.03;;;3.88;;
25015;SDS011;13029;46.286;7.488;2023-07-20T00:03:35;5.82;;;3.20;;
25015;SDS011;13029;46.286;7.488;2023-07-20T00:06:00;4.97;;;3.45;;
25015;SDS011;13029;46.286;7.488;2023-07-20T00:08:26;5.47;;;3.55;;
25015;SDS011;13029;46.286;7.488;2023-07-20T00:10:51;7.13;;;3.42;;
25015;SDS011;13029;46.286;7.488;2023-07-20T00:13:16;9.15;;;3.92;;
25015;SDS011;13029;46.286;7.488;2023-07-20T00:15:43;5.35;;;3.58;;
25015;SDS011;13029;46.286;7.488;2023-07-20T00:18:09;6.75;;;3.65;;
25015;SDS011;13029;46.286;7.488;2023-07-20T00:20:34;4.93;;;3.58;;
25015;SDS011;13029;46.286;7.488;2023-07-20T00:22:59;5.85;;;3.80;;
25015;SDS011;13029;46.286;7.488;2023-07-20T00:25:25;7.57;;;4.38;;
25015;SDS011;13029;46.286;7.488;2023-07-20T00:27:50;5.50;;;3.58;;
25015;SDS011;13029;46.286;7.488;2023-07-20T00:30:15;5.18;;;3.58;;
25015;SDS011;13029;46.286;7.488;2023-07-20T00:32:44;7.03;;;3.75;;
25015;SDS011;13029;46.286;7.488;2023-07-20T00:35:10;6.78;;;3.65;;
25015;SDS011;13029;46.286;7.488;2023-07-20T00:37:36;5.20;;;3.53;;
25015;SDS011;13029;46.286;7.488;2023-07-20T00:40:02;6.57;;;3.50;;
25015;SDS011;13029;46.286;7.488;2023-07-20T00:42:30;7.30;;;3.92;;
25015;SDS011;13029;46.286;7.488;2023-07-20T00:44:56;7.20;;;3.90;;
25015;SDS011;13029;46.286;7.488;2023-07-20T00:47:21;7.88;;;3.63;;
25015;SDS011;13029;46.286;7.488;2023-07-20T00:49:46;4.40;;;3.17;;
25015;SDS011;13029;46.286;7.488;2023-07-20T00:52:12;7.15;;;3.83;;
25015;SDS011;13029;46.286;7.488;2023-07-20T00:54:39;5.68;;;3.47;;
25015;SDS011;13029;46.286;7.488;2023-07-20T00:57:05;5.45;;;3.60;;
25015;SDS011;13029;46.286;7.488;2023-07-20T00:59:32;6.53;;;3.72;;
25015;SDS011;13029;46.286;7.488;2023-07-20T01:01:57;7.57;;;4.00;;
25015;SDS011;13029;46.286;7.488;2023-07-20T01:04:22;7.15;;;3.65;;
25015;SDS011;13029;46.286;7.488;2023-07-20T01:06:58;4.82;;;3.60;;
25015;SDS011;13029;46.286;7.488;2023-07-20T01:12:30;4.13;;;3.20;;
25015;SDS011;13029;46.286;7.488;2023-07-20T01:15:08;5.82;;;3.28;;
25015;SDS011;13029;46.286;7.488;2023-07-20T01:17:34;8.15;;;4.05;;
25015;SDS011;13029;46.286;7.488;2023-07-20T01:20:00;6.10;;;3.80;;
25015;SDS011;13029;46.286;7.488;2023-07-20T01:25:22;6.53;;;3.42;;
25015;SDS011;13029;46.286;7.488;2023-07-20T01:32:59;5.03;;;3.47;;
25015;SDS011;13029;46.286;7.488;2023-07-20T01:35:27;5.88;;;4.00;;
25015;SDS011;13029;46.286;7.488;2023-07-20T01:37:53;9.00;;;3.67;;
25015;SDS011;13029;46.286;7.488;2023-07-20T01:40:19;6.50;;;3.45;;
25015;SDS011;13029;46.286;7.488;2023-07-20T01:42:47;6.57;;;4.45;;
25015;SDS011;13029;46.286;7.488;2023-07-20T01:45:13;5.93;;;4.20;;
25015;SDS011;13029;46.286;7.488;2023-07-20T01:47:38;5.00;;;3.28;;
25015;SDS011;13029;46.286;7.488;2023-07-20T01:50:04;14.48;;;4.40;;
25015;SDS011;13029;46.286;7.488;2023-07-20T01:52:30;6.38;;;3.80;;
25015;SDS011;13029;46.286;7.488;2023-07-20T01:54:55;5.22;;;3.45;;
25015;SDS011;13029;46.286;7.488;2023-07-20T01:57:20;6.63;;;3.60;;
25015;SDS011;13029;46.286;7.488;2023-07-20T01:59:46;4.47;;;3.22;;
25015;SDS011;13029;46.286;7.488;2023-07-20T02:02:11;5.18;;;3.45;;
25015;SDS011;13029;46.286;7.488;2023-07-20T02:04:36;5.78;;;3.33;;
25015;SDS011;13029;46.286;7.488;2023-07-20T02:07:02;6.25;;;3.45;;
25015;SDS011;13029;46.286;7.488;2023-07-20T02:09:27;6.70;;;3.95;;
25015;SDS011;13029;46.286;7.488;2023-07-20T02:11:52;4.45;;;3.45;;
25015;SDS011;13029;46.286;7.488;2023-07-20T02:14:18;7.47;;;3.90;;
25015;SDS011;13029;46.286;7.488;2023-07-20T02:16:43;6.15;;;4.00;;
25015;SDS011;13029;46.286;7.488;2023-07-20T02:19:08;5.45;;;3.80;;
25015;SDS011;13029;46.286;7.488;2023-07-20T02:21:33;7.82;;;3.90;;
25015;SDS011;13029;46.286;7.488;2023-07-20T02:23:59;7.63;;;4.18;;
25015;SDS011;13029;46.286;7.488;2023-07-20T02:26:24;5.22;;;3.80;;
25015;SDS011;13029;46.286;7.488;2023-07-20T02:28:50;4.10;;;3.35;;
25015;SDS011;13029;46.286;7.488;2023-07-20T02:31:15;5.00;;;4.15;;
25015;SDS011;13029;46.286;7.488;2023-07-20T02:33:41;6.82;;;3.85;;
25015;SDS011;13029;46.286;7.488;2023-07-20T02:36:06;6.25;;;3.92;;
25015;SDS011;13029;46.286;7.488;2023-07-20T02:38:31;5.50;;;3.90;;
25015;SDS011;13029;46.286;7.488;2023-07-20T02:40:57;7.13;;;4.10;;
25015;SDS011;13029;46.286;7.488;2023-07-20T02:43:22;8.88;;;3.88;;
25015;SDS011;13029;46.286;7.488;2023-07-20T02:45:47;4.70;;;3.67;;
25015;SDS011;13029;46.286;7.488;2023-07-20T02:48:13;8.18;;;4.25;;
25015;SDS011;13029;46.286;7.488;2023-07-20T02:50:38;5.13;;;3.72;;
25015;SDS011;13029;46.286;7.488;2023-07-20T02:53:03;6.15;;;3.80;;
25015;SDS011;13029;46.286;7.488;2023-07-20T02:55:29;5.93;;;4.22;;
25015;SDS011;13029;46.286;7.488;2023-07-20T02:57:54;6.05;;;3.67;;
25015;SDS011;13029;46.286;7.488;2023-07-20T03:00:19;8.95;;;4.40;;
25015;SDS011;13029;46.286;7.488;2023-07-20T03:02:45;6.80;;;3.50;;
25015;SDS011;13029;46.286;7.488;2023-07-20T03:05:13;6.40;;;3.80;;
25015;SDS011;13029;46.286;7.488;2023-07-20T03:07:38;6.88;;;3.90;;
25015;SDS011;13029;46.286;7.488;2023-07-20T03:10:04;8.55;;;4.18;;
25015;SDS011;13029;46.286;7.488;2023-07-20T03:12:32;6.82;;;4.07;;
25015;SDS011;13029;46.286;7.488;2023-07-20T03:14:59;8.93;;;3.70;;
25015;SDS011;13029;46.286;7.488;2023-07-20T03:17:24;6.03;;;3.85;;
25015;SDS011;13029;46.286;7.488;2023-07-20T03:19:49;6.07;;;4.10;;
25015;SDS011;13029;46.286;7.488;2023-07-20T03:22:15;7.13;;;4.07;;
25015;SDS011;13029;46.286;7.488;2023-07-20T03:24:40;7.82;;;4.55;;
25015;SDS011;13029;46.286;7.488;2023-07-20T03:27:05;7.90;;;4.30;;
25015;SDS011;13029;46.286;7.488;2023-07-20T03:29:31;7.13;;;4.20;;
25015;SDS011;13029;46.286;7.488;2023-07-20T03:31:58;7.38;;;4.13;;
25015;SDS011;13029;46.286;7.488;2023-07-20T03:34:24;11.10;;;4.40;;
25015;SDS011;13029;46.286;7.488;2023-07-20T03:36:49;8.38;;;3.80;;
25015;SDS011;13029;46.286;7.488;2023-07-20T03:39:15;6.90;;;4.32;;
25015;SDS011;13029;46.286;7.488;2023-07-20T03:41:40;5.00;;;3.80;;
25015;SDS011;13029;46.286;7.488;2023-07-20T03:44:05;6.63;;;3.78;;
25015;SDS011;13029;46.286;7.488;2023-07-20T03:46:31;6.65;;;3.67;;
25015;SDS011;13029;46.286;7.488;2023-07-20T03:48:56;8.25;;;4.10;;
25015;SDS011;13029;46.286;7.488;2023-07-20T03:51:21;6.38;;;3.90;;
25015;SDS011;13029;46.286;7.488;2023-07-20T03:53:47;5.78;;;4.00;;
25015;SDS011;13029;46.286;7.488;2023-07-20T03:56:12;6.38;;;4.13;;
25015;SDS011;13029;46.286;7.488;2023-07-20T03:58:37;6.57;;;3.80;;
25015;SDS011;13029;46.286;7.488;2023-07-20T04:01:03;4.65;;;3.63;;
25015;SDS011;13029;46.286;7.488;2023-07-20T04:03:28;11.10;;;3.92;;
25015;SDS011;13029;46.286;7.488;2023-07-20T04:05:54;5.07;;;3.80;;
25015;SDS011;13029;46.286;7.488;2023-07-20T04:08:23;9.30;;;4.45;;
25015;SDS011;13029;46.286;7.488;2023-07-20T04:10:49;6.30;;;3.95;;
25015;SDS011;13029;46.286;7.488;2023-07-20T04:13:14;7.03;;;4.07;;
25015;SDS011;13029;46.286;7.488;2023-07-20T04:15:40;6.40;;;3.75;;
25015;SDS011;13029;46.286;7.488;2023-07-20T04:18:05;12.85;;;4.22;;
25015;SDS011;13029;46.286;7.488;2023-07-20T04:20:31;6.60;;;4.20;;
25015;SDS011;13029;46.286;7.488;2023-07-20T04:22:56;7.22;;;4.15;;
25015;SDS011;13029;46.286;7.488;2023-07-20T04:25:21;7.13;;;4.15;;
25015;SDS011;13029;46.286;7.488;2023-07-20T04:27:47;6.15;;;3.92;;
25015;SDS011;13029;46.286;7.488;2023-07-20T04:30:12;5.32;;;3.58;;
25015;SDS011;13029;46.286;7.488;2023-07-20T04:32:38;8.85;;;3.80;;
25015;SDS011;13029;46.286;7.488;2023-07-20T04:35:09;6.45;;;3.92;;
25015;SDS011;13029;46.286;7.488;2023-07-20T04:37:34;10.52;;;4.07;;
25015;SDS011;13029;46.286;7.488;2023-07-20T04:39:59;4.18;;;3.47;;
25015;SDS011;13029;46.286;7.488;2023-07-20T04:42:25;7.80;;;3.70;;
25015;SDS011;13029;46.286;7.488;2023-07-20T04:44:50;6.38;;;4.20;;
25015;SDS011;13029;46.286;7.488;2023-07-20T04:47:16;6.20;;;3.95;;
25015;SDS011;13029;46.286;7.488;2023-07-20T04:49:41;7.93;;;3.53;;
25015;SDS011;13029;46.286;7.488;2023-07-20T04:52:07;7.18;;;3.97;;
25015;SDS011;13029;46.286;7.488;2023-07-20T04:54:32;5.60;;;3.47;;
25015;SDS011;13029;46.286;7.488;2023-07-20T04:56:57;5.82;;;3.85;;
25015;SDS011;13029;46.286;7.488;2023-07-20T04:59:22;5.45;;;3.92;;
25015;SDS011;13029;46.286;7.488;2023-07-20T05:01:48;5.80;;;3.75;;
25015;SDS011;13029;46.286;7.488;2023-07-20T05:04:13;6.05;;;4.32;;
25015;SDS011;13029;46.286;7.488;2023-07-20T05:06:38;8.90;;;4.40;;
25015;SDS011;13029;46.286;7.488;2023-07-20T05:09:04;5.35;;;3.92;;
25015;SDS011;13029;46.286;7.488;2023-07-20T05:11:30;9.02;;;4.00;;
25015;SDS011;13029;46.286;7.488;2023-07-20T05:13:55;6.32;;;4.25;;
25015;SDS011;13029;46.286;7.488;2023-07-20T05:16:20;6.65;;;4.05;;
25015;SDS011;13029;46.286;7.488;2023-07-20T05:18:46;8.13;;;3.80;;
25015;SDS011;13029;46.286;7.488;2023-07-20T05:21:13;9.15;;;4.60;;
25015;SDS011;13029;46.286;7.488;2023-07-20T05:23:38;7.68;;;3.75;;
25015;SDS011;13029;46.286;7.488;2023-07-20T05:26:03;7.82;;;4.07;;
25015;SDS011;13029;46.286;7.488;2023-07-20T05:28:29;8.77;;;3.85;;
25015;SDS011;13029;46.286;7.488;2023-07-20T05:30:54;8.15;;;4.10;;
25015;SDS011;13029;46.286;7.488;2023-07-20T05:33:20;6.93;;;4.15;;
25015;SDS011;13029;46.286;7.488;2023-07-20T05:35:46;9.15;;;4.88;;
25015;SDS011;13029;46.286;7.488;2023-07-20T05:38:11;9.23;;;4.22;;
25015;SDS011;13029;46.286;7.488;2023-07-20T05:40:37;6.93;;;3.72;;
25015;SDS011;13029;46.286;7.488;2023-07-20T05:43:03;8.85;;;5.13;;
25015;SDS011;13029;46.286;7.488;2023-07-20T05:45:28;10.20;;;4.38;;
25015;SDS011;13029;46.286;7.488;2023-07-20T05:47:53;9.82;;;3.97;;
25015;SDS011;13029;46.286;7.488;2023-07-20T05:50:19;6.45;;;4.22;;
25015;SDS011;13029;46.286;7.488;2023-07-20T05:52:44;6.75;;;4.15;;
25015;SDS011;13029;46.286;7.488;2023-07-20T05:55:09;5.85;;;4.28;;
25015;SDS011;13029;46.286;7.488;2023-07-20T05:57:35;6.85;;;4.20;;
25015;SDS011;13029;46.286;7.488;2023-07-20T06:00:00;5.28;;;4.25;;
25015;SDS011;13029;46.286;7.488;2023-07-20T06:02:26;7.45;;;4.40;;
25015;SDS011;13029;46.286;7.488;2023-07-20T06:04:51;9.57;;;4.40;;
25015;SDS011;13029;46.286;7.488;2023-07-20T06:07:16;7.47;;;4.53;;
25015;SDS011;13029;46.286;7.488;2023-07-20T06:09:41;7.45;;;4.35;;
25015;SDS011;13029;46.286;7.488;2023-07-20T06:12:07;7.45;;;4.00;;
25015;SDS011;13029;46.286;7.488;2023-07-20T06:14:33;7.63;;;4.35;;
25015;SDS011;13029;46.286;7.488;2023-07-20T06:16:58;7.15;;;3.78;;
25015;SDS011;13029;46.286;7.488;2023-07-20T06:19:24;7.65;;;4.90;;
25015;SDS011;13029;46.286;7.488;2023-07-20T06:21:49;5.47;;;4.35;;
25015;SDS011;13029;46.286;7.488;2023-07-20T06:24:15;5.65;;;4.22;;
25015;SDS011;13029;46.286;7.488;2023-07-20T06:26:40;9.52;;;4.72;;
25015;SDS011;13029;46.286;7.488;2023-07-20T06:29:06;5.22;;;4.07;;
25015;SDS011;13029;46.286;7.488;2023-07-20T06:31:32;8.40;;;4.22;;
25015;SDS011;13029;46.286;7.488;2023-07-20T06:33:58;9.73;;;4.38;;
25015;SDS011;13029;46.286;7.488;2023-07-20T06:36:23;7.13;;;3.90;;
25015;SDS011;13029;46.286;7.488;2023-07-20T06:38:51;7.63;;;4.32;;
25015;SDS011;13029;46.286;7.488;2023-07-20T06:41:16;7.50;;;3.78;;
25015;SDS011;13029;46.286;7.488;2023-07-20T06:43:41;7.00;;;4.65;;
25015;SDS011;13029;46.286;7.488;2023-07-20T06:46:07;8.45;;;4.43;;
25015;SDS011;13029;46.286;7.488;2023-07-20T06:48:32;9.52;;;4.70;;
25015;SDS011;13029;46.286;7.488;2023-07-20T06:50:58;10.35;;;5.22;;
25015;SDS011;13029;46.286;7.488;2023-07-20T06:53:23;11.95;;;5.00;;
25015;SDS011;13029;46.286;7.488;2023-07-20T06:55:49;9.43;;;4.70;;
25015;SDS011;13029;46.286;7.488;2023-07-20T06:58:15;10.63;;;4.93;;
25015;SDS011;13029;46.286;7.488;2023-07-20T07:00:40;11.95;;;5.10;;
25015;SDS011;13029;46.286;7.488;2023-07-20T07:03:05;11.95;;;5.30;;
25015;SDS011;13029;46.286;7.488;2023-07-20T07:05:32;11.25;;;4.93;;
25015;SDS011;13029;46.286;7.488;2023-07-20T07:08:00;7.93;;;5.07;;
25015;SDS011;13029;46.286;7.488;2023-07-20T07:10:26;7.38;;;5.15;;
25015;SDS011;13029;46.286;7.488;2023-07-20T07:12:51;10.90;;;5.43;;
25015;SDS011;13029;46.286;7.488;2023-07-20T07:15:16;9.40;;;5.10;;
25015;SDS011;13029;46.286;7.488;2023-07-20T07:17:42;11.10;;;4.90;;
25015;SDS011;13029;46.286;7.488;2023-07-20T07:20:08;8.85;;;5.10;;
25015;SDS011;13029;46.286;7.488;2023-07-20T07:22:34;9.02;;;5.13;;
25015;SDS011;13029;46.286;7.488;2023-07-20T07:24:59;10.05;;;4.90;;
25015;SDS011;13029;46.286;7.488;2023-07-20T07:27:24;9.07;;;5.40;;
25015;SDS011;13029;46.286;7.488;2023-07-20T07:29:50;8.45;;;5.30;;
25015;SDS011;13029;46.286;7.488;2023-07-20T07:32:15;8.00;;;5.55;;
25015;SDS011;13029;46.286;7.488;2023-07-20T07:34:40;13.57;;;5.85;;
25015;SDS011;13029;46.286;7.488;2023-07-20T07:37:06;9.38;;;5.40;;
25015;SDS011;13029;46.286;7.488;2023-07-20T07:39:31;10.20;;;6.10;;
25015;SDS011;13029;46.286;7.488;2023-07-20T07:41:57;8.15;;;5.40;;
25015;SDS011;13029;46.286;7.488;2023-07-20T07:44:22;8.15;;;4.78;;
25015;SDS011;13029;46.286;7.488;2023-07-20T07:46:48;6.60;;;5.07;;
25015;SDS011;13029;46.286;7.488;2023-07-20T07:49:13;8.52;;;5.07;;
25015;SDS011;13029;46.286;7.488;2023-07-20T07:51:39;7.93;;;5.00;;
25015;SDS011;13029;46.286;7.488;2023-07-20T07:54:04;10.10;;;5.30;;
25015;SDS011;13029;46.286;7.488;2023-07-20T07:56:30;12.48;;;5.03;;
25015;SDS011;13029;46.286;7.488;2023-07-20T07:58:55;9.43;;;6.25;;
25015;SDS011;13029;46.286;7.488;2023-07-20T08:01:20;7.78;;;4.28;;
25015;SDS011;13029;46.286;7.488;2023-07-20T08:03:47;8.40;;;4.57;;
25015;SDS011;13029;46.286;7.488;2023-07-20T08:06:13;8.23;;;4.65;;
25015;SDS011;13029;46.286;7.488;2023-07-20T08:08:38;10.48;;;5.63;;
25015;SDS011;13029;46.286;7.488;2023-07-20T08:11:04;9.63;;;4.80;;
25015;SDS011;13029;46.286;7.488;2023-07-20T08:13:29;8.15;;;4.25;;
25015;SDS011;13029;46.286;7.488;2023-07-20T08:15:55;7.97;;;4.43;;
25015;SDS011;13029;46.286;7.488;2023-07-20T08:18:20;6.57;;;4.70;;
25015;SDS011;13029;46.286;7.488;2023-07-20T08:20:46;6.88;;;4.60;;
25015;SDS011;13029;46.286;7.488;2023-07-20T08:23:12;7.63;;;5.40;;
25015;SDS011;13029;46.286;7.488;2023-07-20T08:25:38;8.38;;;4.43;;
25015;SDS011;13029;46.286;7.488;2023-07-20T08:28:09;9.75;;;4.90;;
25015;SDS011;13029;46.286;7.488;2023-07-20T08:33:09;8.88;;;4.10;;
25015;SDS011;13029;46.286;7.488;2023-07-20T08:35:35;9.45;;;4.10;;
25015;SDS011;13029;46.286;7.488;2023-07-20T08:38:00;8.00;;;4.22;;
25015;SDS011;13029;46.286;7.488;2023-07-20T08:40:26;8.25;;;4.63;;
25015;SDS011;13029;46.286;7.488;2023-07-20T08:42:51;7.70;;;4.43;;
25015;SDS011;13029;46.286;7.488;2023-07-20T08:45:17;10.32;;;4.63;;
25015;SDS011;13029;46.286;7.488;2023-07-20T08:47:43;15.00;;;5.32;;
25015;SDS011;13029;46.286;7.488;2023-07-20T08:50:10;5.65;;;4.22;;
25015;SDS011;13029;46.286;7.488;2023-07-20T08:52:36;10.25;;;5.05;;
25015;SDS011;13029;46.286;7.488;2023-07-20T08:55:01;8.32;;;4.40;;
25015;SDS011;13029;46.286;7.488;2023-07-20T08:57:29;15.48;;;5.15;;
25015;SDS011;13029;46.286;7.488;2023-07-20T08:59:55;8.40;;;4.28;;
25015;SDS011;13029;46.286;7.488;2023-07-20T09:02:21;9.40;;;4.10;;
25015;SDS011;13029;46.286;7.488;2023-07-20T09:04:50;10.15;;;5.47;;
25015;SDS011;13029;46.286;7.488;2023-07-20T09:07:15;9.60;;;4.82;;
25015;SDS011;13029;46.286;7.488;2023-07-20T09:09:40;6.43;;;4.35;;
25015;SDS011;13029;46.286;7.488;2023-07-20T09:12:12;9.18;;;4.22;;
25015;SDS011;13029;46.286;7.488;2023-07-20T09:14:39;8.70;;;4.45;;
25015;SDS011;13029;46.286;7.488;2023-07-20T09:17:04;8.65;;;4.85;;
25015;SDS011;13029;46.286;7.488;2023-07-20T09:19:30;9.93;;;4.97;;
25015;SDS011;13029;46.286;7.488;2023-07-20T09:21:55;17.17;;;4.65;;
25015;SDS011;13029;46.286;7.488;2023-07-20T09:24:21;10.98;;;4.55;;
25015;SDS011;13029;46.286;7.488;2023-07-20T09:26:47;7.47;;;4.35;;
25015;SDS011;13029;46.286;7.488;2023-07-20T09:29:13;6.03;;;4.45;;
25015;SDS011;13029;46.286;7.488;2023-07-20T09:31:39;8.63;;;4.40;;
25015;SDS011;13029;46.286;7.488;2023-07-20T09:34:07;9.23;;;4.18;;
25015;SDS011;13029;46.286;7.488;2023-07-20T09:36:33;7.63;;;4.65;;
25015;SDS011;13029;46.286;7.488;2023-07-20T09:38:59;5.07;;;4.05;;
25015;SDS011;13029;46.286;7.488;2023-07-20T09:41:25;6.65;;;4.53;;
25015;SDS011;13029;46.286;7.488;2023-07-20T09:43:51;8.10;;;4.32;;
25015;SDS011;13029;46.286;7.488;2023-07-20T09:46:17;8.00;;;4.07;;
25015;SDS011;13029;46.286;7.488;2023-07-20T09:48:51;8.60;;;4.30;;
25015;SDS011;13029;46.286;7.488;2023-07-20T09:51:18;6.53;;;4.38;;
25015;SDS011;13029;46.286;7.488;2023-07-20T09:53:46;6.00;;;3.95;;
25015;SDS011;13029;46.286;7.488;2023-07-20T09:56:13;7.57;;;4.50;;
25015;SDS011;13029;46.286;7.488;2023-07-20T09:58:40;7.43;;;4.13;;
25015;SDS011;13029;46.286;7.488;2023-07-20T10:01:06;5.63;;;4.32;;
25015;SDS011;13029;46.286;7.488;2023-07-20T10:03:32;9.05;;;4.35;;
25015;SDS011;13029;46.286;7.488;2023-07-20T10:06:08;9.77;;;4.55;;
25015;SDS011;13029;46.286;7.488;2023-07-20T10:08:37;7.32;;;3.88;;
25015;SDS011;13029;46.286;7.488;2023-07-20T10:11:04;4.95;;;3.55;;
25015;SDS011;13029;46.286;7.488;2023-07-20T10:13:30;6.15;;;3.90;;
25015;SDS011;13029;46.286;7.488;2023-07-20T10:15:59;8.38;;;4.35;;
25015;SDS011;13029;46.286;7.488;2023-07-20T10:18:48;8.48;;;3.83;;
25015;SDS011;13029;46.286;7.488;2023-07-20T10:21:33;6.63;;;4.25;;
25015;SDS011;13029;46.286;7.488;2023-07-20T10:24:00;6.28;;;3.67;;
25015;SDS011;13029;46.286;7.488;2023-07-20T10:26:26;6.75;;;4.03;;
25015;SDS011;13029;46.286;7.488;2023-07-20T10:28:51;6.60;;;4.07;;
25015;SDS011;13029;46.286;7.488;2023-07-20T10:31:18;6.05;;;3.75;;
25015;SDS011;13029;46.286;7.488;2023-07-20T10:33:43;6.40;;;4.15;;
25015;SDS011;13029;46.286;7.488;2023-07-20T10:36:09;6.80;;;3.78;;
25015;SDS011;13029;46.286;7.488;2023-07-20T10:41:21;5.60;;;3.88;;
25015;SDS011;13029;46.286;7.488;2023-07-20T10:43:49;6.57;;;3.88;;
25015;SDS011;13029;46.286;7.488;2023-07-20T10:46:19;5.55;;;3.92;;
25015;SDS011;13029;46.286;7.488;2023-07-20T10:48:59;6.22;;;3.83;;
25015;SDS011;13029;46.286;7.488;2023-07-20T10:51:26;11.27;;;3.88;;
25015;SDS011;13029;46.286;7.488;2023-07-20T10:53:52;4.60;;;3.67;;
25015;SDS011;13029;46.286;7.488;2023-07-20T10:56:20;7.28;;;4.28;;
25015;SDS011;13029;46.286;7.488;2023-07-20T10:58:47;5.28;;;3.55;;
25015;SDS011;13029;46.286;7.488;2023-07-20T11:01:18;8.15;;;3.30;;
25015;SDS011;13029;46.286;7.488;2023-07-20T11:03:44;6.07;;;3.83;;
25015;SDS011;13029;46.286;7.488;2023-07-20T11:08:56;3.95;;;3.00;;
25015;SDS011;13029;46.286;7.488;2023-07-20T11:11:25;6.55;;;3.70;;
25015;SDS011;13029;46.286;7.488;2023-07-20T11:16:32;6.57;;;3.70;;
25015;SDS011;13029;46.286;7.488;2023-07-20T11:18:58;6.43;;;3.55;;
25015;SDS011;13029;46.286;7.488;2023-07-20T11:21:24;7.00;;;3.30;;
25015;SDS011;13029;46.286;7.488;2023-07-20T11:23:49;9.93;;;3.80;;
25015;SDS011;13029;46.286;7.488;2023-07-20T11:26:16;7.80;;;3.50;;
25015;SDS011;13029;46.286;7.488;2023-07-20T11:28:41;7.18;;;4.05;;
25015;SDS011;13029;46.286;7.488;2023-07-20T11:31:07;6.15;;;3.17;;
25015;SDS011;13029;46.286;7.488;2023-07-20T11:33:32;5.25;;;3.53;;
25015;SDS011;13029;46.286;7.488;2023-07-20T11:35:57;6.53;;;3.83;;
25015;SDS011;13029;46.286;7.488;2023-07-20T11:38:23;6.13;;;3.33;;
25015;SDS011;13029;46.286;7.488;2023-07-20T11:40:49;9.70;;;3.83;;
25015;SDS011;13029;46.286;7.488;2023-07-20T11:43:15;8.38;;;3.90;;
25015;SDS011;13029;46.286;7.488;2023-07-20T11:45:41;5.68;;;3.35;;
25015;SDS011;13029;46.286;7.488;2023-07-20T11:48:06;6.43;;;3.50;;
25015;SDS011;13029;46.286;7.488;2023-07-20T11:50:32;6.20;;;3.78;;
25015;SDS011;13029;46.286;7.488;2023-07-20T11:52:57;5.03;;;3.70;;
25015;SDS011;13029;46.286;7.488;2023-07-20T11:55:22;6.18;;;3.75;;
25015;SDS011;13029;46.286;7.488;2023-07-20T11:58:00;6.88;;;3.33;;
25015;SDS011;13029;46.286;7.488;2023-07-20T12:00:28;10.93;;;4.25;;
25015;SDS011;13029;46.286;7.488;2023-07-20T12:02:54;6.03;;;3.67;;
25015;SDS011;13029;46.286;7.488;2023-07-20T12:05:19;8.20;;;3.63;;
25015;SDS011;13029;46.286;7.488;2023-07-20T12:07:47;6.95;;;3.45;;
25015;SDS011;13029;46.286;7.488;2023-07-20T12:10:15;9.52;;;3.63;;
25015;SDS011;13029;46.286;7.488;2023-07-20T12:12:41;4.38;;;3.40;;
25015;SDS011;13029;46.286;7.488;2023-07-20T12:17:50;7.40;;;3.40;;
25015;SDS011;13029;46.286;7.488;2023-07-20T12:20:24;6.63;;;3.65;;
25015;SDS011;13029;46.286;7.488;2023-07-20T12:23:08;5.35;;;3.45;;
25015;SDS011;13029;46.286;7.488;2023-07-20T12:25:39;6.85;;;3.38;;
25015;SDS011;13029;46.286;7.488;2023-07-20T12:28:09;5.97;;;3.30;;
25015;SDS011;13029;46.286;7.488;2023-07-20T12:30:39;5.28;;;3.35;;
25015;SDS011;13029;46.286;7.488;2023-07-20T12:33:05;5.13;;;3.60;;
25015;SDS011;13029;46.286;7.488;2023-07-20T12:35:33;4.93;;;3.40;;
25015;SDS011;13029;46.286;7.488;2023-07-20T12:37:59;6.32;;;3.85;;
25015;SDS011;13029;46.286;7.488;2023-07-20T12:40:25;4.88;;;3.63;;
25015;SDS011;13029;46.286;7.488;2023-07-20T12:42:50;5.07;;;3.10;;
25015;SDS011;13029;46.286;7.488;2023-07-20T12:45:15;4.47;;;3.15;;
25015;SDS011;13029;46.286;7.488;2023-07-20T12:47:41;7.13;;;3.33;;
25015;SDS011;13029;46.286;7.488;2023-07-20T12:50:08;5.78;;;3.75;;
25015;SDS011;13029;46.286;7.488;2023-07-20T12:52:36;6.55;;;3.00;;
25015;SDS011;13029;46.286;7.488;2023-07-20T12:55:03;5.15;;;3.42;;
25015;SDS011;13029;46.286;7.488;2023-07-20T12:57:29;7.00;;;3.58;;
25015;SDS011;13029;46.286;7.488;2023-07-20T12:59:54;7.15;;;3.47;;
25015;SDS011;13029;46.286;7.488;2023-07-20T13:02:20;5.15;;;3.00;;
25015;SDS011;13029;46.286;7.488;2023-07-20T13:04:45;11.40;;;3.25;;
25015;SDS011;13029;46.286;7.488;2023-07-20T13:07:10;6.68;;;3.92;;
25015;SDS011;13029;46.286;7.488;2023-07-20T13:09:38;5.97;;;3.20;;
25015;SDS011;13029;46.286;7.488;2023-07-20T13:12:04;4.20;;;3.15;;
25015;SDS011;13029;46.286;7.488;2023-07-20T13:14:29;8.38;;;3.58;;
25015;SDS011;13029;46.286;7.488;2023-07-20T13:16:58;6.93;;;3.70;;
25015;SDS011;13029;46.286;7.488;2023-07-20T13:19:23;7.82;;;3.60;;
25015;SDS011;13029;46.286;7.488;2023-07-20T13:21:48;6.47;;;3.50;;
25015;SDS011;13029;46.286;7.488;2023-07-20T13:24:14;5.03;;;3.85;;
25015;SDS011;13029;46.286;7.488;2023-07-20T13:26:40;5.68;;;3.50;;
25015;SDS011;13029;46.286;7.488;2023-07-20T13:29:06;5.68;;;3.05;;
25015;SDS011;13029;46.286;7.488;2023-07-20T13:31:31;5.97;;;3.30;;
25015;SDS011;13029;46.286;7.488;2023-07-20T13:33:56;9.95;;;3.70;;
25015;SDS011;13029;46.286;7.488;2023-07-20T13:36:23;4.32;;;2.95;;
25015;SDS011;13029;46.286;7.488;2023-07-20T13:38:48;4.97;;;2.70;;
25015;SDS011;13029;46.286;7.488;2023-07-20T13:41:14;5.15;;;2.95;;
25015;SDS011;13029;46.286;7.488;2023-07-20T13:43:41;5.32;;;3.00;;
25015;SDS011;13029;46.286;7.488;2023-07-20T13:46:06;8.55;;;3.40;;
25015;SDS011;13029;46.286;7.488;2023-07-20T13:48:32;4.63;;;3.22;;
25015;SDS011;13029;46.286;7.488;2023-07-20T13:50:57;8.10;;;2.92;;
25015;SDS011;13029;46.286;7.488;2023-07-20T13:53:23;5.20;;;3.22;;
25015;SDS011;13029;46.286;7.488;2023-07-20T13:55:49;4.10;;;3.00;;
25015;SDS011;13029;46.286;7.488;2023-07-20T13:58:14;4.82;;;2.72;;
25015;SDS011;13029;46.286;7.488;2023-07-20T14:00:40;3.75;;;3.00;;
25015;SDS011;13029;46.286;7.488;2023-07-20T14:03:05;5.88;;;3.13;;
25015;SDS011;13029;46.286;7.488;2023-07-20T14:05:30;6.35;;;3.13;;
25015;SDS011;13029;46.286;7.488;2023-07-20T14:07:56;5.90;;;3.17;;
25015;SDS011;13029;46.286;7.488;2023-07-20T14:10:21;5.45;;;2.90;;
25015;SDS011;13029;46.286;7.488;2023-07-20T14:12:46;9.73;;;3.10;;
25015;SDS011;13029;46.286;7.488;2023-07-20T14:15:12;5.65;;;3.10;;
25015;SDS011;13029;46.286;7.488;2023-07-20T14:17:37;6.57;;;3.45;;
25015;SDS011;13029;46.286;7.488;2023-07-20T14:20:02;9.50;;;4.05;;
25015;SDS011;13029;46.286;7.488;2023-07-20T14:22:31;4.25;;;3.00;;
25015;SDS011;13029;46.286;7.488;2023-07-20T14:24:56;6.07;;;3.00;;
25015;SDS011;13029;46.286;7.488;2023-07-20T14:27:22;8.57;;;3.47;;
25015;SDS011;13029;46.286;7.488;2023-07-20T14:29:47;4.35;;;2.90;;
25015;SDS011;13029;46.286;7.488;2023-07-20T14:32:13;5.10;;;3.10;;
25015;SDS011;13029;46.286;7.488;2023-07-20T14:34:38;6.30;;;3.25;;
25015;SDS011;13029;46.286;7.488;2023-07-20T14:37:05;6.70;;;3.35;;
25015;SDS011;13029;46.286;7.488;2023-07-20T14:39:30;6.22;;;3.15;;
25015;SDS011;13029;46.286;7.488;2023-07-20T14:41:56;10.48;;;3.30;;
25015;SDS011;13029;46.286;7.488;2023-07-20T14:44:22;5.88;;;3.30;;
25015;SDS011;13029;46.286;7.488;2023-07-20T14:46:47;3.72;;;3.00;;
25015;SDS011;13029;46.286;7.488;2023-07-20T14:49:12;6.88;;;2.95;;
25015;SDS011;13029;46.286;7.488;2023-07-20T14:51:38;8.32;;;3.10;;
25015;SDS011;13029;46.286;7.488;2023-07-20T14:54:08;7.13;;;2.85;;
25015;SDS011;13029;46.286;7.488;2023-07-20T14:56:34;6.68;;;3.10;;
25015;SDS011;13029;46.286;7.488;2023-07-20T14:58:59;6.80;;;3.53;;
25015;SDS011;13029;46.286;7.488;2023-07-20T15:01:25;6.22;;;3.50;;
25015;SDS011;13029;46.286;7.488;2023-07-20T15:03:51;6.18;;;3.58;;